Last 24 Hours

Thomas Mountain

10 Minute Data | America/Los_Angeles
as of 8/31/26 10:36 PM PDT
Date & Time Temp (°F) Dew Pt (°F) RH (%) Wind Spd (mph) Wind Dir (°) Wind Gust (mph) Wind Gst Dir (°) Daily Max Temp (°F) Daily Min Temp (°F)
8/31/26 - 2230 65.6 28.5 25 4.4 WSW | 250 6.6 WSW | 256 78.7 62.5
8/31/26 - 2220 65.8 29.2 25 5.0 WSW | 251 8.0 W | 260 78.7 62.5
8/31/26 - 2210 65.9 29.4 25 4.9 W | 259 7.9 W | 260 78.7 62.5
8/31/26 - 2200 65.6 30.8 27 3.7 WSW | 253 4.7 WSW | 245 78.7 62.5
8/31/26 - 2150 65.5 30.6 27 4.2 WSW | 238 5.6 WSW | 251 78.7 62.5
8/31/26 - 2140 65.2 31.2 28 2.3 WNW | 302 4.1 NNW | 336 78.7 62.5
8/31/26 - 2130 64.2 32.8 31 4.6 N | 352 6.3 N | 354 78.7 62.5
8/31/26 - 2120 62.8 34.1 34 4.1 N | 355 5.3 NNW | 348 78.7 62.5
8/31/26 - 2110 63.8 33.7 32 4.9 NNE | 27 6.8 NNE | 12 78.7 63.1
8/31/26 - 2100 66.0 32.7 29 1.4 NNE | 30 4.7 W | 263 78.7 64.8
8/31/26 - 2050 66.2 33.0 29 5.2 W | 268 8.5 W | 264 78.7 65.4
8/31/26 - 2040 65.7 35.8 33 5.7 W | 264 8.8 W | 267 78.7 65.4
8/31/26 - 2030 66.2 37.7 35 5.5 WSW | 254 7.7 SW | 232 78.7 65.4
8/31/26 - 2020 66.9 38.4 35 6.3 W | 267 10.3 W | 270 78.7 65.4
8/31/26 - 2010 66.8 40.8 39 4.8 W | 274 7.6 W | 265 78.7 65.4
8/31/26 - 2000 67.1 41.9 40 4.7 W | 275 7.8 WNW | 288 78.7 65.4
8/31/26 - 1950 67.3 42.3 40 4.7 W | 281 6.7 W | 271 78.7 65.4
8/31/26 - 1940 67.7 42.6 40 6.3 W | 272 10.2 WNW | 284 78.7 65.4
8/31/26 - 1930 67.9 41.4 38 6.2 W | 273 10.4 W | 272 78.7 65.4
8/31/26 - 1920 68.4 41.4 37 7.4 W | 262 11.7 WSW | 249 78.7 65.4
8/31/26 - 1910 69.0 41.6 37 7.6 W | 259 12.8 WSW | 254 78.7 65.4
8/31/26 - 1900 69.4 42.8 38 8.5 WSW | 256 14.2 W | 263 78.7 65.4
8/31/26 - 1850 70.0 43.4 38 9.1 WSW | 256 16.3 W | 269 78.7 65.4
8/31/26 - 1840 70.9 43.2 37 8.5 WSW | 252 13.7 WSW | 244 78.7 65.4
8/31/26 - 1830 71.5 42.6 35 8.4 WSW | 258 15.0 WSW | 244 78.7 65.4
8/31/26 - 1820 72.0 42.4 34 10.5 WSW | 249 16.8 W | 261 78.7 65.4
8/31/26 - 1810 72.4 42.0 33 11.0 WSW | 250 17.4 WSW | 256 78.7 65.4
8/31/26 - 1800 72.6 41.6 33 11.2 WSW | 249 17.5 WSW | 255 78.7 65.4
8/31/26 - 1750 72.8 42.2 33 12.8 WSW | 254 19.3 W | 280 78.7 65.4
8/31/26 - 1740 73.4 43.4 34 12.1 WSW | 248 17.2 WSW | 244 78.7 65.4
8/31/26 - 1730 73.4 43.6 34 13.2 WSW | 248 21.2 WSW | 239 78.7 65.4
8/31/26 - 1720 74.0 43.6 34 11.5 WSW | 249 21.6 WSW | 252 78.7 65.4
8/31/26 - 1710 74.3 44.1 34 10.4 W | 261 18.5 WNW | 294 78.7 65.4
8/31/26 - 1700 75.7 44.8 33 11.9 WSW | 245 20.7 WSW | 241 78.7 65.4
8/31/26 - 1650 75.6 45.3 34 12.5 WSW | 241 24.5 WSW | 251 78.7 65.4
8/31/26 - 1640 75.7 45.9 35 13.9 WSW | 244 21.1 WSW | 248 78.7 65.4
8/31/26 - 1630 75.6 46.0 35 10.6 WSW | 247 24.4 WSW | 256 78.7 65.4
8/31/26 - 1620 75.8 46.3 35 11.4 WSW | 251 23.2 WSW | 243 78.7 65.4
8/31/26 - 1610 76.1 47.3 36 13.4 WSW | 239 25.0 WSW | 248 78.7 65.4
8/31/26 - 1600 77.0 47.8 36 13.6 WSW | 241 20.2 SW | 230 78.7 65.4
8/31/26 - 1550 76.7 48.1 36 12.9 WSW | 238 21.3 WSW | 253 78.7 65.4
8/31/26 - 1540 76.1 47.3 36 13.3 SW | 236 21.1 WSW | 248 78.7 65.4
8/31/26 - 1530 76.1 46.5 35 12.8 WSW | 240 19.9 WSW | 247 78.7 65.4
8/31/26 - 1520 76.3 46.1 34 12.0 SW | 236 21.4 WSW | 242 78.7 65.4
8/31/26 - 1510 76.3 45.9 34 13.6 SW | 235 23.3 SW | 236 78.7 65.4
8/31/26 - 1500 76.5 45.7 33 13.8 WSW | 241 20.2 SW | 233 78.7 65.4
8/31/26 - 1450 75.8 45.8 34 14.1 WSW | 242 23.6 WSW | 237 78.7 65.4
8/31/26 - 1440 77.2 46.1 33 13.1 WSW | 239 20.8 WSW | 239 78.7 65.4
8/31/26 - 1430 76.5 45.9 34 13.8 SW | 236 22.4 WSW | 241 78.7 65.4
8/31/26 - 1420 77.0 46.0 33 12.2 SW | 234 22.9 S | 186 78.7 65.4
8/31/26 - 1410 76.7 46.0 34 13.5 WSW | 238 21.0 WSW | 247 78.7 65.4
8/31/26 - 1400 77.1 46.2 33 10.8 WSW | 243 19.9 WSW | 246 78.7 65.4
8/31/26 - 1350 76.5 46.2 34 12.7 WSW | 245 22.3 WSW | 238 77.5 65.4
8/31/26 - 1340 76.4 46.3 34 10.2 WSW | 250 19.3 W | 265 77.5 65.4
8/31/26 - 1330 75.6 47.1 36 8.9 WSW | 242 16.9 WSW | 239 77.5 65.4
8/31/26 - 1320 76.4 47.7 36 11.5 WSW | 237 19.7 SSW | 212 77.5 65.4
8/31/26 - 1310 75.4 48.0 38 11.6 WSW | 240 20.2 WSW | 242 76.9 65.4
8/31/26 - 1300 75.1 48.0 38 9.2 WSW | 254 18.5 WSW | 252 76.9 65.4
8/31/26 - 1250 75.1 48.5 39 11.0 WSW | 246 21.3 WSW | 250 76.9 65.4
8/31/26 - 1240 75.3 48.9 39 11.9 SW | 228 21.8 SW | 220 76.9 65.4
8/31/26 - 1230 75.6 50.0 41 12.2 SW | 230 23.7 SW | 222 76.9 65.4
8/31/26 - 1220 75.3 48.9 39 11.8 SW | 225 19.4 SW | 220 76.9 65.4
8/31/26 - 1210 74.2 48.5 40 13.5 WSW | 239 23.2 SW | 235 76.9 65.4
8/31/26 - 1200 74.9 48.9 40 14.0 WSW | 245 25.1 WSW | 239 76.9 65.4
8/31/26 - 1150 75.6 48.9 39 13.0 WSW | 239 20.2 W | 266 76.9 65.4
8/31/26 - 1140 75.0 48.5 39 12.4 WSW | 248 21.4 SW | 233 76.1 65.4
8/31/26 - 1130 74.5 48.8 40 12.3 WSW | 241 23.9 WSW | 258 75.8 65.4
8/31/26 - 1120 74.6 48.5 40 13.5 WSW | 239 22.3 WSW | 248 75.8 65.4
8/31/26 - 1110 74.2 48.1 40 12.8 SW | 234 22.9 SW | 221 75.4 65.4
8/31/26 - 1100 74.1 48.3 40 11.5 SW | 231 18.4 SW | 233 75.4 65.4
8/31/26 - 1050 74.0 47.4 39 11.0 WSW | 242 20.5 WSW | 241 75.0 65.4
8/31/26 - 1040 73.8 46.5 38 11.6 WSW | 239 18.3 SW | 228 74.4 65.4
8/31/26 - 1030 72.8 45.6 38 11.0 WSW | 242 17.9 WSW | 251 73.5 65.4
8/31/26 - 1020 72.5 43.2 35 10.7 WSW | 242 17.3 SW | 214 72.9 65.4
8/31/26 - 1010 72.4 38.6 29 8.2 SW | 229 15.3 SW | 231 72.9 65.4
8/31/26 - 1000 71.8 37.2 28 5.8 WSW | 255 11.9 WSW | 253 72.4 65.4
8/31/26 - 0950 71.7 37.3 29 8.6 WSW | 252 13.4 WSW | 249 72.4 65.4
8/31/26 - 0940 71.7 37.6 29 7.9 WSW | 241 12.6 WSW | 250 72.4 65.4
8/31/26 - 0930 71.6 37.4 29 8.4 WSW | 240 13.2 WSW | 245 72.2 65.4
8/31/26 - 0920 70.5 39.2 32 8.0 WSW | 250 17.0 WSW | 252 70.9 65.4
8/31/26 - 0910 70.1 40.2 34 10.2 WSW | 249 17.5 WSW | 251 70.8 65.4
8/31/26 - 0900 70.2 35.5 28 7.9 WSW | 248 15.2 SW | 235 70.8 65.4
8/31/26 - 0850 69.7 34.0 27 6.5 W | 261 12.4 W | 266 69.9 65.4
8/31/26 - 0840 69.4 33.0 26 5.3 WSW | 242 10.6 WSW | 255 69.8 65.4
8/31/26 - 0830 69.5 36.2 30 5.8 WSW | 254 9.6 W | 266 69.7 65.4
8/31/26 - 0820 69.3 39.5 34 6.3 WSW | 254 11.2 WSW | 244 69.7 65.4
8/31/26 - 0810 68.8 40.3 35 7.9 WNW | 283 15.2 WNW | 290 69.0 65.4
8/31/26 - 0800 68.9 38.1 32 5.4 W | 274 10.5 W | 275 69.0 65.4
8/31/26 - 0750 68.5 36.5 31 6.9 WNW | 282 12.2 WNW | 283 68.7 65.4
8/31/26 - 0740 68.4 35.4 30 8.6 W | 281 14.4 W | 280 68.5 65.4
8/31/26 - 0730 68.2 31.6 26 6.8 WNW | 287 11.8 WNW | 288 68.4 65.4
8/31/26 - 0720 68.0 29.4 24 6.5 WNW | 294 14.1 WNW | 300 68.4 65.4
8/31/26 - 0710 67.8 27.9 22 6.4 WNW | 296 10.4 WNW | 294 68.4 65.4
8/31/26 - 0700 67.4 24.8 20 6.8 WNW | 294 13.2 NW | 314 68.4 65.4
8/31/26 - 0650 66.9 24.5 20 6.7 WNW | 294 12.4 NW | 322 68.4 65.4
8/31/26 - 0640 66.9 24.8 20 6.2 WNW | 290 12.9 W | 269 68.4 65.4
8/31/26 - 0630 66.8 27.3 22 6.3 WNW | 292 10.4 WNW | 293 68.4 65.4
8/31/26 - 0620 66.8 27.3 22 5.1 NW | 304 9.8 WNW | 294 68.4 65.4
8/31/26 - 0610 67.0 27.3 22 6.5 WNW | 295 12.4 WNW | 286 68.4 65.4
8/31/26 - 0600 67.0 27.4 22 6.6 WNW | 290 11.6 W | 275 68.4 65.4
8/31/26 - 0550 67.2 28.3 23 6.6 WNW | 292 13.1 WSW | 258 68.4 65.4
8/31/26 - 0540 67.1 26.9 22 6.7 WNW | 294 10.5 W | 264 68.4 65.4
8/31/26 - 0530 67.0 24.6 20 7.1 WNW | 299 17.0 WNW | 294 68.4 65.4
8/31/26 - 0520 66.9 23.9 19 7.4 WNW | 291 12.7 WNW | 303 68.4 65.4
8/31/26 - 0510 66.6 20.6 17 6.0 WNW | 297 10.8 WNW | 292 68.4 65.4
8/31/26 - 0500 66.6 23.2 19 5.7 WNW | 294 9.9 NNW | 331 68.4 65.4
8/31/26 - 0450 66.6 21.0 17 6.1 NW | 306 13.2 WNW | 299 68.4 65.4
8/31/26 - 0440 67.3 24.9 20 8.4 W | 279 14.6 W | 276 68.4 65.4
8/31/26 - 0430 67.8 31.9 26 10.2 WNW | 284 16.5 W | 281 68.4 65.4
8/31/26 - 0420 67.4 32.0 27 10.1 WNW | 284 17.5 WNW | 289 68.4 65.4
8/31/26 - 0410 67.3 31.8 27 8.8 WNW | 288 14.3 WNW | 298 68.4 65.4
8/31/26 - 0400 67.0 32.2 27 7.4 W | 281 13.4 WNW | 288 68.4 65.4
8/31/26 - 0350 67.7 33.6 28 10.0 W | 280 18.3 WNW | 290 68.4 65.4
8/31/26 - 0340 67.6 34.1 29 10.2 W | 276 16.2 W | 272 68.4 65.4
8/31/26 - 0330 67.7 34.5 29 9.6 W | 277 14.4 W | 277 68.4 65.4
8/31/26 - 0320 67.7 34.7 29 8.3 W | 280 15.0 W | 270 68.4 65.4
8/31/26 - 0310 67.8 34.9 30 9.2 WNW | 283 15.4 W | 266 68.4 65.4
8/31/26 - 0300 67.6 35.2 30 7.0 WNW | 282 12.2 WNW | 282 68.4 65.4
8/31/26 - 0250 67.6 35.5 30 6.0 WNW | 287 11.1 WNW | 297 68.4 65.4
8/31/26 - 0240 68.1 36.8 32 6.8 W | 281 14.3 W | 280 68.4 65.4
8/31/26 - 0230 67.9 38.3 34 7.4 WNW | 289 14.8 W | 277 68.2 65.4
8/31/26 - 0220 67.7 36.6 32 5.9 WNW | 298 12.0 WNW | 302 68.1 65.4
8/31/26 - 0210 67.3 36.1 32 5.5 WNW | 289 12.7 W | 277 68.1 65.4
8/31/26 - 0200 67.4 36.5 32 3.8 WNW | 292 9.4 W | 278 68.1 65.4
8/31/26 - 0150 67.3 36.3 32 3.8 NW | 312 8.3 NW | 305 68.1 65.4
8/31/26 - 0140 67.2 37.4 33 4.3 WNW | 303 8.7 W | 281 68.1 65.4
8/31/26 - 0130 66.2 40.1 38 4.9 NW | 325 9.0 WNW | 301 68.1 65.4
8/31/26 - 0120 66.9 40.5 38 4.8 NNW | 344 8.4 NW | 311 68.1 65.8
8/31/26 - 0110 68.0 38.4 34 4.7 NW | 319 8.7 WNW | 283 68.1 67.9
8/31/26 - 0100 68.1 38.4 34 4.9 NW | 315 10.1 W | 280 84.1 67.6
8/31/26 - 0050 68.1 38.7 34 4.5 WNW | 297 8.7 WNW | 300 84.1 67.6
8/31/26 - 0040 67.8 39.5 35 4.4 WNW | 297 9.0 WNW | 291 84.1 67.6
8/31/26 - 0030 67.9 39.6 35 4.0 NW | 320 6.9 NW | 312 84.1 67.7
8/31/26 - 0020 68.2 39.3 35 5.3 NW | 312 9.4 WNW | 303 84.1 67.7
8/31/26 - 0010 68.3 39.4 35 5.1 WNW | 296 8.8 NW | 304 84.1 67.7
8/31/26 - 0000 68.2 40.6 36 6.5 WNW | 292 13.4 WNW | 284 84.1 67.7
8/30/26 - 2350 68.1 41.4 38 5.5 WNW | 287 9.0 WNW | 297 84.1 67.7
8/30/26 - 2340 68.0 41.5 38 4.3 WNW | 296 7.5 WNW | 293 84.1 67.7
8/30/26 - 2330 67.8 42.0 39 4.1 NW | 304 7.2 WNW | 295 84.1 67.7
8/30/26 - 2320 67.8 42.7 40 4.3 WNW | 302 10.4 NW | 306 84.1 67.7
8/30/26 - 2310 67.9 44.7 43 5.1 WNW | 293 10.0 W | 268 84.1 67.7
8/30/26 - 2300 67.8 48.7 50 5.6 WNW | 282 9.2 WNW | 291 84.1 67.7
8/30/26 - 2250 68.0 50.3 53 6.2 W | 277 10.0 W | 270 84.1 67.8
8/30/26 - 2240 68.2 48.9 50 5.4 WNW | 282 9.6 W | 278 84.1 68.0
8/30/26 - 2230 68.3 48.0 48 3.5 W | 279 7.0 W | 276 84.1 68.3
Max 77.2 50.3 53 14.1 - 25.1 - 84.1 68.3
Avg 70.3 39.2 33 8.2 - 14.4 - - -
Min 62.8 20.6 17 1.4 - 4.1 - 68.1 62.5